Time;durP1;ratioP1;P1;durP2;ratioP2;P2;SDS_P1;SDS_P2;PMS_P1;PMS_P2;Temp;Humidity;BMP_temperature;BMP_pressure;BME280_temperature;BME280_humidity;BME280_pressure;Samples;Min_cycle;Max_cycle;Signal;HPM_P1;HPM_P2
2023/09/22 00:00:10;;;;;;;12.88;5.00;;;;;;;;;;5066131;28;20013;-43
2023/09/22 00:02:37;;;;;;;12.80;5.18;;;;;;;;;;5064767;28;20316;-37
2023/09/22 00:05:04;;;;;;;12.70;5.05;;;;;;;;;;5082802;28;20376;-37
2023/09/22 00:07:30;;;;;;;15.70;5.80;;;;;;;;;;5085090;28;20060;-38
2023/09/22 00:09:57;;;;;;;11.50;5.15;;;;;;;;;;5066803;28;20053;-44
2023/09/22 00:12:24;;;;;;;9.07;5.50;;;;;;;;;;5064813;28;20323;-38
2023/09/22 00:14:50;;;;;;;7.53;4.78;;;;;;;;;;5081229;28;20378;-37
2023/09/22 00:17:17;;;;;;;43.42;7.22;;;;;;;;;;5084360;28;20063;-46
2023/09/22 00:19:45;;;;;;;7.80;5.35;;;;;;;;;;5083133;28;20024;-38
2023/09/22 00:22:12;;;;;;;14.75;5.10;;;;;;;;;;5084001;28;20028;-42
2023/09/22 00:24:38;;;;;;;11.27;5.28;;;;;;;;;;5083163;28;20040;-40
2023/09/22 00:27:05;;;;;;;10.80;5.35;;;;;;;;;;5084238;28;20029;-38
2023/09/22 00:29:32;;;;;;;12.65;5.43;;;;;;;;;;5084435;28;20036;-44
2023/09/22 00:31:58;;;;;;;12.73;6.55;;;;;;;;;;5082874;28;20372;-39
2023/09/22 00:34:25;;;;;;;13.18;6.10;;;;;;;;;;5082383;28;20042;-39
2023/09/22 00:36:56;;;;;;;14.88;5.88;;;;;;;;;;5082611;28;20035;-38
2023/09/22 00:39:23;;;;;;;10.52;5.80;;;;;;;;;;5082484;28;20026;-38
2023/09/22 00:41:49;;;;;;;6.70;5.05;;;;;;;;;;5082489;28;20024;-42
2023/09/22 00:44:16;;;;;;;8.88;5.15;;;;;;;;;;5082483;28;20061;-39
2023/09/22 00:46:43;;;;;;;7.57;4.95;;;;;;;;;;5082469;28;20209;-42
2023/09/22 00:49:10;;;;;;;7.07;5.15;;;;;;;;;;5083266;28;20074;-37
2023/09/22 00:51:37;;;;;;;10.02;5.57;;;;;;;;;;5082417;28;20036;-40
2023/09/22 00:54:03;;;;;;;7.93;4.82;;;;;;;;;;5082155;28;20048;-42
2023/09/22 00:56:31;;;;;;;8.57;5.10;;;;;;;;;;5081524;28;20118;-39
2023/09/22 00:58:58;;;;;;;16.52;5.45;;;;;;;;;;5082326;28;20036;-41
2023/09/22 01:01:24;;;;;;;8.57;4.90;;;;;;;;;;5082610;28;20377;-49
2023/09/22 01:03:51;;;;;;;10.13;5.32;;;;;;;;;;5082864;28;20021;-38
2023/09/22 01:06:20;;;;;;;9.20;4.97;;;;;;;;;;5083825;28;20033;-38
2023/09/22 01:08:47;;;;;;;8.30;5.10;;;;;;;;;;5083739;28;20360;-38
2023/09/22 01:11:14;;;;;;;9.02;5.10;;;;;;;;;;5083635;28;20024;-39
2023/09/22 01:13:42;;;;;;;7.28;5.20;;;;;;;;;;5083586;28;20043;-38
2023/09/22 01:16:08;;;;;;;7.35;4.90;;;;;;;;;;5083077;28;20032;-39
2023/09/22 01:18:36;;;;;;;8.63;5.03;;;;;;;;;;5083657;28;20024;-38
2023/09/22 01:21:04;;;;;;;7.40;5.18;;;;;;;;;;5083633;28;20043;-39
2023/09/22 01:23:31;;;;;;;5.78;5.18;;;;;;;;;;5084111;28;20047;-38
2023/09/22 01:25:58;;;;;;;7.32;5.07;;;;;;;;;;5083428;28;20017;-38
2023/09/22 01:28:28;;;;;;;6.45;4.93;;;;;;;;;;5084099;28;20064;-49
2023/09/22 01:30:54;;;;;;;7.65;5.57;;;;;;;;;;5083880;28;20378;-42
2023/09/22 01:33:21;;;;;;;12.25;4.82;;;;;;;;;;5083839;28;20025;-38
2023/09/22 01:35:48;;;;;;;11.40;5.65;;;;;;;;;;5083623;28;20039;-44
2023/09/22 01:38:25;;;;;;;7.25;5.32;;;;;;;;;;5083979;28;20031;-48
2023/09/22 01:40:54;;;;;;;6.43;5.53;;;;;;;;;;5083405;28;20374;-39
2023/09/22 01:43:21;;;;;;;8.43;5.75;;;;;;;;;;5083975;28;20033;-37
2023/09/22 01:45:48;;;;;;;9.32;5.82;;;;;;;;;;5076463;28;20016;-49
2023/09/22 01:48:16;;;;;;;13.23;5.72;;;;;;;;;;5067194;28;20028;-44
2023/09/22 01:50:42;;;;;;;9.60;5.32;;;;;;;;;;5068255;28;20028;-45
2023/09/22 01:53:10;;;;;;;6.13;5.60;;;;;;;;;;5074742;28;20096;-35
2023/09/22 01:55:37;;;;;;;11.50;6.43;;;;;;;;;;5084110;28;20024;-37
2023/09/22 01:58:04;;;;;;;7.63;6.00;;;;;;;;;;5079707;28;20059;-44
2023/09/22 02:00:34;;;;;;;9.05;5.93;;;;;;;;;;5074614;28;20258;-45
2023/09/22 02:03:01;;;;;;;7.32;5.43;;;;;;;;;;5075915;28;20037;-46
2023/09/22 02:05:29;;;;;;;5.97;4.68;;;;;;;;;;5063226;28;20309;-39
2023/09/22 02:07:59;;;;;;;7.63;5.10;;;;;;;;;;5066069;28;20029;-39
2023/09/22 02:10:26;;;;;;;9.40;5.10;;;;;;;;;;5078680;28;20266;-37
2023/09/22 02:12:53;;;;;;;7.38;4.70;;;;;;;;;;5082632;28;20029;-37
2023/09/22 02:15:19;;;;;;;11.80;5.05;;;;;;;;;;5066881;28;20013;-45
2023/09/22 02:17:49;;;;;;;7.25;5.05;;;;;;;;;;5067528;28;20139;-40
2023/09/22 02:20:22;;;;;;;10.38;5.50;;;;;;;;;;5067082;28;20216;-37
2023/09/22 02:22:51;;;;;;;11.52;6.50;;;;;;;;;;5067050;28;20057;-39
2023/09/22 02:25:19;;;;;;;18.50;7.35;;;;;;;;;;5066467;28;20039;-37
2023/09/22 02:27:47;;;;;;;26.25;8.35;;;;;;;;;;5067567;28;20051;-41
2023/09/22 02:30:16;;;;;;;22.63;8.02;;;;;;;;;;5077697;28;20127;-39
2023/09/22 02:32:44;;;;;;;22.73;9.20;;;;;;;;;;5087047;28;20088;-39
2023/09/22 02:35:11;;;;;;;19.38;8.00;;;;;;;;;;5086542;28;20020;-40
2023/09/22 02:37:38;;;;;;;16.23;7.45;;;;;;;;;;5086803;28;20016;-44
2023/09/22 02:40:05;;;;;;;10.80;6.47;;;;;;;;;;5086555;28;20034;-45
2023/09/22 02:42:32;;;;;;;17.38;7.45;;;;;;;;;;5075338;28;20257;-37
2023/09/22 02:44:58;;;;;;;23.90;6.82;;;;;;;;;;5081121;28;20099;-42
2023/09/22 02:47:29;;;;;;;10.00;5.80;;;;;;;;;;5102102;28;20225;-43
2023/09/22 02:49:56;;;;;;;23.73;5.95;;;;;;;;;;5106702;28;20105;-46
2023/09/22 02:52:23;;;;;;;14.90;4.78;;;;;;;;;;5092120;28;20087;-48
2023/09/22 02:54:54;;;;;;;10.73;5.40;;;;;;;;;;5086353;28;20062;-47
2023/09/22 02:57:20;;;;;;;10.38;6.35;;;;;;;;;;5085917;28;20052;-49
2023/09/22 02:59:48;;;;;;;16.02;7.80;;;;;;;;;;5086090;28;20028;-45
2023/09/22 03:02:15;;;;;;;10.35;7.18;;;;;;;;;;5083933;28;20029;-52
2023/09/22 03:04:41;;;;;;;12.05;6.88;;;;;;;;;;5066096;28;20032;-45
2023/09/22 03:07:08;;;;;;;11.82;6.00;;;;;;;;;;5066097;28;20029;-51
2023/09/22 03:09:36;;;;;;;9.98;5.80;;;;;;;;;;5065816;28;20060;-50
2023/09/22 03:12:02;;;;;;;12.80;6.28;;;;;;;;;;5101263;28;20208;-47
2023/09/22 03:14:29;;;;;;;14.27;6.95;;;;;;;;;;5093979;28;20286;-45
2023/09/22 03:16:57;;;;;;;13.70;7.43;;;;;;;;;;5085800;28;20086;-50
2023/09/22 03:19:24;;;;;;;11.15;7.35;;;;;;;;;;5085234;28;20341;-50
2023/09/22 03:21:52;;;;;;;16.88;7.10;;;;;;;;;;5085741;28;20062;-44
2023/09/22 03:24:18;;;;;;;16.92;6.45;;;;;;;;;;5085609;28;20257;-45
2023/09/22 03:26:46;;;;;;;14.57;6.95;;;;;;;;;;5085639;28;20029;-46
2023/09/22 03:29:14;;;;;;;17.00;6.45;;;;;;;;;;5085370;28;20324;-46
2023/09/22 03:31:41;;;;;;;13.13;6.03;;;;;;;;;;5077413;28;20037;-41
2023/09/22 03:34:08;;;;;;;9.73;6.10;;;;;;;;;;5080292;28;20020;-44
2023/09/22 03:36:37;;;;;;;12.02;5.93;;;;;;;;;;5085575;28;20032;-44
2023/09/22 03:39:08;;;;;;;11.98;5.75;;;;;;;;;;5085491;28;20054;-40
2023/09/22 03:41:35;;;;;;;8.73;5.22;;;;;;;;;;5085627;28;20289;-42
2023/09/22 03:44:02;;;;;;;12.13;5.15;;;;;;;;;;5085267;28;20299;-48
2023/09/22 03:46:29;;;;;;;8.63;5.20;;;;;;;;;;5085450;28;20076;-51
2023/09/22 03:48:56;;;;;;;6.13;5.30;;;;;;;;;;5085180;28;20023;-42
2023/09/22 03:51:25;;;;;;;10.38;4.68;;;;;;;;;;5085090;28;20017;-44
2023/09/22 03:53:52;;;;;;;6.47;5.20;;;;;;;;;;5085050;28;20032;-42
2023/09/22 03:56:18;;;;;;;5.72;4.60;;;;;;;;;;5085060;28;20271;-42
2023/09/22 03:58:45;;;;;;;6.18;4.20;;;;;;;;;;5084819;28;20084;-39
2023/09/22 04:01:12;;;;;;;6.53;4.28;;;;;;;;;;5084824;28;20048;-38
2023/09/22 04:03:38;;;;;;;17.25;5.32;;;;;;;;;;5084727;28;20346;-42
2023/09/22 04:06:06;;;;;;;44.30;9.35;;;;;;;;;;5084683;28;20051;-40
2023/09/22 04:08:32;;;;;;;54.45;9.02;;;;;;;;;;5084769;28;20052;-39
2023/09/22 04:11:02;;;;;;;59.65;9.82;;;;;;;;;;5084753;28;20020;-43
2023/09/22 04:13:30;;;;;;;50.90;9.48;;;;;;;;;;5077308;28;20047;-41
2023/09/22 04:16:01;;;;;;;61.42;9.43;;;;;;;;;;5067311;28;20067;-43
2023/09/22 04:18:31;;;;;;;84.47;12.13;;;;;;;;;;5064979;28;20031;-43
2023/09/22 04:20:58;;;;;;;82.43;12.20;;;;;;;;;;5064724;28;20076;-44
2023/09/22 04:23:25;;;;;;;83.35;12.02;;;;;;;;;;5064971;28;20213;-39
2023/09/22 04:25:54;;;;;;;107.53;14.07;;;;;;;;;;5073186;28;20024;-40
2023/09/22 04:28:24;;;;;;;118.20;13.90;;;;;;;;;;5075857;28;20068;-40
2023/09/22 04:30:51;;;;;;;85.50;12.63;;;;;;;;;;5067670;28;20025;-49
2023/09/22 04:33:19;;;;;;;80.53;10.25;;;;;;;;;;5071746;28;20029;-45
2023/09/22 04:35:45;;;;;;;47.90;7.53;;;;;;;;;;5069637;28;20020;-40
2023/09/22 04:38:14;;;;;;;26.52;6.60;;;;;;;;;;5064774;28;20040;-39
2023/09/22 04:40:41;;;;;;;30.95;7.25;;;;;;;;;;5064088;28;20036;-45
2023/09/22 04:43:08;;;;;;;23.63;6.70;;;;;;;;;;5069227;28;20243;-42
2023/09/22 04:45:40;;;;;;;23.88;6.28;;;;;;;;;;5073865;28;20039;-41
2023/09/22 04:48:06;;;;;;;17.88;5.70;;;;;;;;;;5075888;28;20024;-39
2023/09/22 04:50:33;;;;;;;13.35;5.30;;;;;;;;;;5066130;28;20021;-44
2023/09/22 04:53:00;;;;;;;7.75;5.18;;;;;;;;;;5073000;28;20243;-44
2023/09/22 04:55:29;;;;;;;7.50;5.45;;;;;;;;;;5066885;28;20028;-40
2023/09/22 04:57:56;;;;;;;7.00;4.82;;;;;;;;;;5075460;28;20029;-43
2023/09/22 05:00:24;;;;;;;6.00;5.20;;;;;;;;;;5064152;28;20033;-40
2023/09/22 05:02:52;;;;;;;9.15;5.40;;;;;;;;;;5066444;28;20025;-40
2023/09/22 05:05:19;;;;;;;8.82;5.50;;;;;;;;;;5072803;28;20029;-40
2023/09/22 05:07:50;;;;;;;8.75;5.20;;;;;;;;;;5068822;28;20029;-39
2023/09/22 05:10:17;;;;;;;9.38;5.43;;;;;;;;;;5069119;28;20136;-40
2023/09/22 05:12:44;;;;;;;6.10;5.50;;;;;;;;;;5064224;28;20100;-40
2023/09/22 05:15:11;;;;;;;7.43;5.25;;;;;;;;;;5071671;28;20365;-41
2023/09/22 05:17:37;;;;;;;7.15;5.90;;;;;;;;;;5067071;28;20336;-42
2023/09/22 05:20:11;;;;;;;6.47;5.30;;;;;;;;;;5063785;28;20028;-45
2023/09/22 05:22:39;;;;;;;6.53;5.22;;;;;;;;;;5073707;28;20028;-39
2023/09/22 05:25:06;;;;;;;5.80;5.20;;;;;;;;;;5064550;28;20051;-43
2023/09/22 05:27:34;;;;;;;9.30;5.20;;;;;;;;;;5063950;28;20224;-40
2023/09/22 05:30:03;;;;;;;8.13;5.50;;;;;;;;;;5063597;28;20021;-39
2023/09/22 05:32:29;;;;;;;6.15;5.43;;;;;;;;;;5063322;28;20025;-40
2023/09/22 05:34:56;;;;;;;12.98;6.00;;;;;;;;;;5063658;28;20028;-43
2023/09/22 05:37:23;;;;;;;6.55;5.60;;;;;;;;;;5063729;28;20346;-43
2023/09/22 05:39:51;;;;;;;10.18;5.70;;;;;;;;;;5063878;28;20025;-40
2023/09/22 05:42:18;;;;;;;8.98;5.90;;;;;;;;;;5067022;28;20212;-40
2023/09/22 05:44:44;;;;;;;6.75;5.88;;;;;;;;;;5078989;28;20031;-39
2023/09/22 05:47:12;;;;;;;6.40;5.68;;;;;;;;;;5077248;28;20040;-53
2023/09/22 05:49:39;;;;;;;9.35;5.57;;;;;;;;;;5073823;28;20273;-47
2023/09/22 05:52:06;;;;;;;7.63;6.10;;;;;;;;;;5078720;28;20029;-50
2023/09/22 05:54:32;;;;;;;9.57;5.38;;;;;;;;;;5069713;28;20027;-48
2023/09/22 05:56:59;;;;;;;6.82;5.30;;;;;;;;;;5083943;28;20354;-47
2023/09/22 05:59:30;;;;;;;7.40;5.32;;;;;;;;;;5087382;28;20073;-43
2023/09/22 06:01:59;;;;;;;7.05;5.40;;;;;;;;;;5079433;28;20037;-44
2023/09/22 06:04:26;;;;;;;5.90;5.30;;;;;;;;;;5076104;28;20331;-40
2023/09/22 06:06:54;;;;;;;5.97;5.00;;;;;;;;;;5072929;28;20058;-41
2023/09/22 06:09:21;;;;;;;7.20;5.43;;;;;;;;;;5072465;28;20053;-39
2023/09/22 06:11:49;;;;;;;10.88;5.72;;;;;;;;;;5067126;28;20040;-40
2023/09/22 06:14:15;;;;;;;35.10;7.70;;;;;;;;;;5068922;28;20021;-47
2023/09/22 06:16:42;;;;;;;40.72;8.35;;;;;;;;;;5075987;28;20126;-43
2023/09/22 06:19:10;;;;;;;71.93;10.18;;;;;;;;;;5066972;28;20067;-41
2023/09/22 06:21:38;;;;;;;42.92;8.88;;;;;;;;;;5066798;28;20021;-45
2023/09/22 06:24:06;;;;;;;36.92;9.07;;;;;;;;;;5066636;28;20032;-45
2023/09/22 06:26:33;;;;;;;52.75;9.82;;;;;;;;;;5075063;28;20100;-40
2023/09/22 06:28:59;;;;;;;36.10;7.57;;;;;;;;;;5086654;28;20074;-39
2023/09/22 06:31:26;;;;;;;39.95;9.07;;;;;;;;;;5086785;28;20328;-40
2023/09/22 06:33:53;;;;;;;60.75;10.40;;;;;;;;;;5078071;28;20031;-41
2023/09/22 06:36:19;;;;;;;42.33;8.55;;;;;;;;;;5069245;28;20028;-40
2023/09/22 06:38:46;;;;;;;35.75;7.63;;;;;;;;;;5066622;28;20035;-45
2023/09/22 06:41:18;;;;;;;33.67;7.45;;;;;;;;;;5069000;28;20028;-45
2023/09/22 06:43:45;;;;;;;53.85;8.02;;;;;;;;;;5075989;28;20332;-49
2023/09/22 06:46:11;;;;;;;49.80;7.45;;;;;;;;;;5079227;28;20390;-42
2023/09/22 06:48:38;;;;;;;33.20;7.07;;;;;;;;;;5072219;28;20048;-42
2023/09/22 06:51:06;;;;;;;48.65;7.75;;;;;;;;;;5066278;28;20021;-44
2023/09/22 06:53:36;;;;;;;44.22;7.35;;;;;;;;;;5066035;28;20281;-41
2023/09/22 06:56:08;;;;;;;32.47;6.32;;;;;;;;;;5065619;28;20323;-39
2023/09/22 06:58:40;;;;;;;31.15;6.70;;;;;;;;;;5066200;28;20032;-41
2023/09/22 07:01:10;;;;;;;20.87;4.90;;;;;;;;;;5066485;28;20363;-40
2023/09/22 07:03:40;;;;;;;15.20;4.95;;;;;;;;;;5066074;28;20050;-40
2023/09/22 07:06:09;;;;;;;20.73;5.38;;;;;;;;;;5066074;28;20033;-42
2023/09/22 07:08:35;;;;;;;7.80;3.88;;;;;;;;;;5065896;28;20049;-41
2023/09/22 07:11:03;;;;;;;5.93;3.85;;;;;;;;;;5065976;28;20028;-48
2023/09/22 07:13:30;;;;;;;18.95;4.85;;;;;;;;;;5066334;28;20037;-41
2023/09/22 07:15:57;;;;;;;45.78;6.72;;;;;;;;;;5065919;28;20213;-43
2023/09/22 07:18:25;;;;;;;26.63;6.28;;;;;;;;;;5066393;28;20032;-37
2023/09/22 07:20:52;;;;;;;42.83;6.57;;;;;;;;;;5065839;28;20322;-40
2023/09/22 07:23:20;;;;;;;44.25;6.78;;;;;;;;;;5066213;28;20051;-44
2023/09/22 07:25:58;;;;;;;55.92;8.82;;;;;;;;;;5065687;28;20027;-51
2023/09/22 07:28:25;;;;;;;48.67;7.88;;;;;;;;;;5066142;28;20032;-47
2023/09/22 07:30:52;;;;;;;56.40;9.02;;;;;;;;;;5065650;28;20040;-40
2023/09/22 07:33:18;;;;;;;32.20;6.68;;;;;;;;;;5065366;28;20047;-40
2023/09/22 07:35:49;;;;;;;36.03;6.35;;;;;;;;;;5065638;28;20220;-44
2023/09/22 07:38:16;;;;;;;21.35;4.57;;;;;;;;;;5065921;28;20028;-41
2023/09/22 07:40:43;;;;;;;17.58;5.35;;;;;;;;;;5065316;28;20340;-43
2023/09/22 07:43:10;;;;;;;13.13;4.18;;;;;;;;;;5065780;28;20396;-41
2023/09/22 07:45:39;;;;;;;6.78;3.50;;;;;;;;;;5065306;28;20285;-48
2023/09/22 07:48:06;;;;;;;5.53;3.20;;;;;;;;;;5065061;28;20028;-47
2023/09/22 07:50:34;;;;;;;10.13;3.97;;;;;;;;;;5065219;28;20298;-42
2023/09/22 07:53:01;;;;;;;5.53;3.30;;;;;;;;;;5065486;28;20017;-41
2023/09/22 07:55:28;;;;;;;5.05;3.40;;;;;;;;;;5065067;28;20074;-40
2023/09/22 07:57:54;;;;;;;4.85;3.47;;;;;;;;;;5065457;28;20321;-40
2023/09/22 08:00:22;;;;;;;5.93;3.28;;;;;;;;;;5065028;28;20021;-41
2023/09/22 08:02:50;;;;;;;7.32;3.58;;;;;;;;;;5065280;28;20044;-47
2023/09/22 08:05:17;;;;;;;6.30;3.88;;;;;;;;;;5064911;28;20029;-46
2023/09/22 08:07:43;;;;;;;5.47;3.63;;;;;;;;;;5065300;28;20355;-48
2023/09/22 08:10:11;;;;;;;8.00;4.28;;;;;;;;;;5064591;28;20237;-48
2023/09/22 08:12:41;;;;;;;10.90;4.85;;;;;;;;;;5065100;28;20292;-48
2023/09/22 08:15:09;;;;;;;5.53;4.70;;;;;;;;;;5080397;28;20066;-51
2023/09/22 08:17:35;;;;;;;5.65;4.60;;;;;;;;;;5084897;28;20029;-46
2023/09/22 08:20:07;;;;;;;5.60;4.72;;;;;;;;;;5068484;28;20036;-47
2023/09/22 08:22:34;;;;;;;6.72;5.07;;;;;;;;;;5064901;28;20135;-49
2023/09/22 08:25:02;;;;;;;6.15;5.28;;;;;;;;;;5064397;28;20324;-47
2023/09/22 08:27:29;;;;;;;7.53;5.60;;;;;;;;;;5064781;28;20078;-46
2023/09/22 08:29:56;;;;;;;9.07;5.30;;;;;;;;;;5065003;28;20035;-44
2023/09/22 08:32:23;;;;;;;7.18;5.30;;;;;;;;;;5084001;28;20039;-44
2023/09/22 08:34:50;;;;;;;7.18;5.90;;;;;;;;;;5084269;28;20040;-45
2023/09/22 08:37:16;;;;;;;7.28;5.60;;;;;;;;;;5084552;28;20016;-47
2023/09/22 08:39:44;;;;;;;7.18;5.85;;;;;;;;;;5084232;28;20039;-47
2023/09/22 08:42:11;;;;;;;8.30;5.45;;;;;;;;;;5084407;28;20051;-46
2023/09/22 08:44:38;;;;;;;8.60;6.03;;;;;;;;;;5084260;28;20047;-48
2023/09/22 08:47:04;;;;;;;7.68;6.40;;;;;;;;;;5084345;28;20040;-46
2023/09/22 08:49:31;;;;;;;7.80;6.10;;;;;;;;;;5084222;28;20037;-46
2023/09/22 08:52:00;;;;;;;6.72;6.03;;;;;;;;;;5084359;28;20031;-47
2023/09/22 08:54:28;;;;;;;7.55;6.13;;;;;;;;;;5083771;28;20036;-49
2023/09/22 08:56:55;;;;;;;8.40;6.35;;;;;;;;;;5083489;28;20037;-40
2023/09/22 08:59:21;;;;;;;7.28;6.38;;;;;;;;;;5084011;28;20231;-40
2023/09/22 09:01:49;;;;;;;6.85;6.25;;;;;;;;;;5083989;28;20099;-44
2023/09/22 09:04:32;;;;;;;7.43;6.28;;;;;;;;;;5084515;28;20214;-40
2023/09/22 09:07:01;;;;;;;8.90;6.45;;;;;;;;;;5083911;28;20046;-44
2023/09/22 09:09:30;;;;;;;7.50;6.53;;;;;;;;;;5083779;28;20340;-45
2023/09/22 09:12:01;;;;;;;8.70;6.68;;;;;;;;;;5084063;28;20033;-48
2023/09/22 09:14:28;;;;;;;7.70;6.78;;;;;;;;;;5074949;28;20036;-41
2023/09/22 09:16:58;;;;;;;7.05;6.35;;;;;;;;;;5079464;28;20028;-46
2023/09/22 09:19:26;;;;;;;8.07;6.30;;;;;;;;;;5083780;28;20016;-45
2023/09/22 09:22:09;;;;;;;6.90;6.20;;;;;;;;;;5083866;28;20367;-42
2023/09/22 09:24:36;;;;;;;10.45;6.68;;;;;;;;;;5083756;28;20024;-42
2023/09/22 09:27:19;;;;;;;6.70;6.15;;;;;;;;;;5083794;28;20036;-46
2023/09/22 09:29:55;;;;;;;8.18;6.50;;;;;;;;;;5083805;28;20378;-40
2023/09/22 09:32:27;;;;;;;7.25;6.60;;;;;;;;;;5083887;28;20037;-45
2023/09/22 09:34:54;;;;;;;9.80;7.10;;;;;;;;;;5083605;28;20269;-41
2023/09/22 09:37:21;;;;;;;7.68;6.88;;;;;;;;;;5083836;28;20063;-44
2023/09/22 09:39:49;;;;;;;8.10;6.57;;;;;;;;;;5083826;28;20034;-40
2023/09/22 09:42:20;;;;;;;7.57;6.75;;;;;;;;;;5084099;28;20071;-40
2023/09/22 09:44:49;;;;;;;7.70;6.93;;;;;;;;;;5083447;28;20088;-40
2023/09/22 09:47:22;;;;;;;7.32;6.45;;;;;;;;;;5083884;28;20040;-43
2023/09/22 09:49:51;;;;;;;7.70;6.90;;;;;;;;;;5083504;28;20314;-39
2023/09/22 09:52:21;;;;;;;8.88;7.75;;;;;;;;;;5083519;28;20032;-40
2023/09/22 09:54:52;;;;;;;9.20;7.68;;;;;;;;;;5083433;28;20232;-40
2023/09/22 09:57:20;;;;;;;7.75;6.95;;;;;;;;;;5083772;28;20047;-42
2023/09/22 09:59:47;;;;;;;9.02;7.20;;;;;;;;;;5083582;28;20040;-41
2023/09/22 10:02:14;;;;;;;7.53;6.82;;;;;;;;;;5072129;28;20025;-41
2023/09/22 10:04:42;;;;;;;7.25;6.53;;;;;;;;;;5069934;28;20059;-40
2023/09/22 10:07:09;;;;;;;20.75;8.23;;;;;;;;;;5063599;28;20225;-40
2023/09/22 10:09:36;;;;;;;18.40;7.63;;;;;;;;;;5063128;28;20075;-44
2023/09/22 10:12:03;;;;;;;17.35;7.47;;;;;;;;;;5063837;28;20041;-44
2023/09/22 10:14:46;;;;;;;11.68;6.88;;;;;;;;;;5063201;28;20055;-43
2023/09/22 10:17:24;;;;;;;10.77;6.70;;;;;;;;;;5063262;28;20040;-45
2023/09/22 10:19:51;;;;;;;11.05;6.65;;;;;;;;;;5063229;28;20025;-40
2023/09/22 10:22:18;;;;;;;9.43;6.55;;;;;;;;;;5063393;28;20362;-41
2023/09/22 10:24:44;;;;;;;10.93;6.65;;;;;;;;;;5063067;28;20075;-41
2023/09/22 10:27:13;;;;;;;12.02;6.97;;;;;;;;;;5063251;28;20021;-40
2023/09/22 10:29:42;;;;;;;10.65;7.00;;;;;;;;;;5063906;28;20075;-44
2023/09/22 10:32:18;;;;;;;11.95;7.20;;;;;;;;;;5068176;28;20212;-44
2023/09/22 10:34:51;;;;;;;13.13;7.15;;;;;;;;;;5079039;28;20075;-40
2023/09/22 10:37:19;;;;;;;13.23;6.43;;;;;;;;;;5078126;28;20089;-46
2023/09/22 10:40:09;;;;;;;8.98;7.95;;;;;;;;;;5076927;28;20088;-43
2023/09/22 10:42:41;;;;;;;16.20;9.48;;;;;;;;;;5077833;28;20032;-45
2023/09/22 10:45:08;;;;;;;14.70;11.23;;;;;;;;;;5083662;28;20114;-45
2023/09/22 10:47:45;;;;;;;12.93;10.07;;;;;;;;;;5083076;28;20040;-42
2023/09/22 10:50:12;;;;;;;20.63;9.30;;;;;;;;;;5083853;28;20095;-44
2023/09/22 10:52:39;;;;;;;13.57;8.40;;;;;;;;;;5082615;28;20032;-40
2023/09/22 10:55:06;;;;;;;12.07;8.38;;;;;;;;;;5083692;28;20013;-41
2023/09/22 10:57:33;;;;;;;15.82;8.63;;;;;;;;;;5083114;28;20081;-41
2023/09/22 11:00:01;;;;;;;17.23;9.25;;;;;;;;;;5084575;28;20048;-45
2023/09/22 11:02:28;;;;;;;19.65;10.43;;;;;;;;;;5085979;28;20056;-43
2023/09/22 11:04:56;;;;;;;18.42;9.70;;;;;;;;;;5085077;28;20032;-41
2023/09/22 11:07:33;;;;;;;46.20;10.40;;;;;;;;;;5084571;28;20036;-41
2023/09/22 11:10:01;;;;;;;23.63;8.90;;;;;;;;;;5084019;28;20052;-42
2023/09/22 11:12:29;;;;;;;21.85;8.13;;;;;;;;;;5084484;28;20247;-45
2023/09/22 11:14:57;;;;;;;20.60;7.90;;;;;;;;;;5084147;28;20028;-41
2023/09/22 11:17:37;;;;;;;12.75;6.95;;;;;;;;;;5084544;28;20039;-41
2023/09/22 11:20:12;;;;;;;9.32;6.57;;;;;;;;;;5084425;28;20070;-47
2023/09/22 11:22:40;;;;;;;8.38;6.25;;;;;;;;;;5085893;28;20029;-42
2023/09/22 11:25:07;;;;;;;8.07;6.15;;;;;;;;;;5085805;28;20031;-45
2023/09/22 11:27:41;;;;;;;12.70;6.10;;;;;;;;;;5086111;28;20037;-45
2023/09/22 11:30:16;;;;;;;15.48;14.07;;;;;;;;;;5085392;28;20017;-43
2023/09/22 11:32:43;;;;;;;13.27;11.10;;;;;;;;;;5085857;28;20033;-42
2023/09/22 11:35:10;;;;;;;11.38;9.25;;;;;;;;;;5085545;28;20024;-43
2023/09/22 11:37:38;;;;;;;10.30;7.95;;;;;;;;;;5085611;28;20034;-43
2023/09/22 11:40:15;;;;;;;7.57;6.88;;;;;;;;;;5084927;28;20039;-43
2023/09/22 11:42:46;;;;;;;18.02;7.72;;;;;;;;;;5085421;28;20084;-51
2023/09/22 11:45:19;;;;;;;9.93;7.00;;;;;;;;;;5085445;28;20032;-40
2023/09/22 11:47:51;;;;;;;8.70;6.78;;;;;;;;;;5084279;28;20066;-38
2023/09/22 11:50:25;;;;;;;8.18;6.38;;;;;;;;;;5084665;28;20074;-46
2023/09/22 11:52:52;;;;;;;7.38;6.65;;;;;;;;;;5083660;28;20063;-44
2023/09/22 11:55:20;;;;;;;8.20;6.00;;;;;;;;;;5083135;28;20032;-42
2023/09/22 11:57:46;;;;;;;10.90;6.20;;;;;;;;;;5083612;28;20029;-43
2023/09/22 12:00:14;;;;;;;18.33;7.07;;;;;;;;;;5083331;28;20016;-46
2023/09/22 12:02:42;;;;;;;42.47;9.00;;;;;;;;;;5083406;28;20083;-46
2023/09/22 12:05:09;;;;;;;24.02;7.30;;;;;;;;;;5083165;28;20304;-41
2023/09/22 12:07:36;;;;;;;19.83;7.05;;;;;;;;;;5099188;28;20028;-41
2023/09/22 12:10:03;;;;;;;22.77;7.03;;;;;;;;;;5104893;28;20064;-44
2023/09/22 12:12:29;;;;;;;18.08;6.70;;;;;;;;;;5105724;28;20028;-41
2023/09/22 12:14:56;;;;;;;18.20;6.72;;;;;;;;;;5104782;28;20020;-46
2023/09/22 12:17:23;;;;;;;13.32;6.78;;;;;;;;;;5103714;28;20046;-41
2023/09/22 12:19:50;;;;;;;11.63;6.88;;;;;;;;;;5103743;28;20012;-48
2023/09/22 12:22:17;;;;;;;11.00;7.40;;;;;;;;;;5105049;28;20019;-39
2023/09/22 12:24:44;;;;;;;12.23;7.25;;;;;;;;;;5104704;28;20028;-49
2023/09/22 12:27:11;;;;;;;13.30;7.80;;;;;;;;;;5105081;28;20063;-38
2023/09/22 12:29:38;;;;;;;11.88;7.82;;;;;;;;;;5104901;28;20040;-41
2023/09/22 12:32:06;;;;;;;12.48;7.22;;;;;;;;;;5103023;28;20031;-43
2023/09/22 12:34:33;;;;;;;17.33;7.53;;;;;;;;;;5102827;28;20379;-40
2023/09/22 12:37:01;;;;;;;24.63;7.75;;;;;;;;;;5103129;28;20020;-40
2023/09/22 12:39:27;;;;;;;17.33;8.43;;;;;;;;;;5102823;28;20031;-44
2023/09/22 12:41:54;;;;;;;13.85;8.13;;;;;;;;;;5103019;28;20028;-42
2023/09/22 12:44:24;;;;;;;25.42;9.50;;;;;;;;;;5102906;28;20024;-40
2023/09/22 12:46:51;;;;;;;28.08;9.25;;;;;;;;;;5104157;28;20308;-44
2023/09/22 12:49:17;;;;;;;43.15;10.52;;;;;;;;;;5104399;28;20371;-44
2023/09/22 12:51:44;;;;;;;40.72;10.70;;;;;;;;;;5104244;28;20044;-39
2023/09/22 12:54:11;;;;;;;25.77;9.95;;;;;;;;;;5103753;28;20211;-46
2023/09/22 12:56:38;;;;;;;28.77;10.05;;;;;;;;;;5104308;28;20312;-41
2023/09/22 12:59:08;;;;;;;28.05;9.07;;;;;;;;;;5104434;28;20043;-40
2023/09/22 13:01:35;;;;;;;26.45;9.77;;;;;;;;;;5104105;28;20092;-40
2023/09/22 13:04:02;;;;;;;20.05;8.05;;;;;;;;;;5104324;28;20031;-38
2023/09/22 13:06:31;;;;;;;25.38;8.55;;;;;;;;;;5104263;28;20040;-45
2023/09/22 13:08:59;;;;;;;33.35;9.70;;;;;;;;;;5103830;28;20044;-46
2023/09/22 13:11:26;;;;;;;35.22;10.20;;;;;;;;;;5104312;28;20073;-45
2023/09/22 13:13:54;;;;;;;49.55;11.48;;;;;;;;;;5104013;28;20020;-45
2023/09/22 13:16:21;;;;;;;58.78;12.32;;;;;;;;;;5103969;28;20028;-43
2023/09/22 13:18:48;;;;;;;65.47;11.55;;;;;;;;;;5104028;28;20031;-45
2023/09/22 13:21:15;;;;;;;60.97;10.95;;;;;;;;;;5103973;28;20016;-41
2023/09/22 13:23:42;;;;;;;51.67;10.85;;;;;;;;;;5103765;28;20059;-40
2023/09/22 13:26:08;;;;;;;51.60;10.90;;;;;;;;;;5103942;28;20020;-43
2023/09/22 13:28:35;;;;;;;46.88;10.80;;;;;;;;;;5103994;28;20049;-41
2023/09/22 13:31:05;;;;;;;52.03;10.23;;;;;;;;;;5103818;28;20055;-43
2023/09/22 13:33:32;;;;;;;51.35;10.40;;;;;;;;;;5103742;28;20328;-43
2023/09/22 13:35:59;;;;;;;51.63;11.00;;;;;;;;;;5103878;28;20034;-45
2023/09/22 13:38:26;;;;;;;46.95;10.73;;;;;;;;;;5104187;28;20039;-44
2023/09/22 13:40:53;;;;;;;58.05;11.13;;;;;;;;;;5103759;28;20062;-43
2023/09/22 13:43:22;;;;;;;43.75;10.57;;;;;;;;;;5104062;28;20077;-41
2023/09/22 13:45:49;;;;;;;51.13;10.80;;;;;;;;;;5103598;28;20020;-48
2023/09/22 13:48:15;;;;;;;43.97;10.70;;;;;;;;;;5104237;28;20024;-42
2023/09/22 13:50:43;;;;;;;44.85;11.15;;;;;;;;;;5103817;28;20212;-40
2023/09/22 13:53:10;;;;;;;49.25;11.23;;;;;;;;;;5103983;28;20036;-39
2023/09/22 13:55:38;;;;;;;48.10;9.85;;;;;;;;;;5103604;28;20050;-39
2023/09/22 13:58:05;;;;;;;42.92;11.00;;;;;;;;;;5104068;28;20185;-41
2023/09/22 14:00:32;;;;;;;53.13;10.70;;;;;;;;;;5103546;28;20087;-42
2023/09/22 14:02:59;;;;;;;39.60;9.50;;;;;;;;;;5104020;28;20024;-39
2023/09/22 14:05:28;;;;;;;42.25;10.07;;;;;;;;;;5107400;28;20035;-41
2023/09/22 14:07:55;;;;;;;29.40;9.52;;;;;;;;;;5107667;28;20227;-41
2023/09/22 14:10:24;;;;;;;28.60;8.90;;;;;;;;;;5107529;28;20111;-38
2023/09/22 14:12:50;;;;;;;26.00;8.85;;;;;;;;;;5107727;28;20088;-40
2023/09/22 14:15:19;;;;;;;24.85;7.97;;;;;;;;;;5107071;28;20082;-40
2023/09/22 14:17:46;;;;;;;21.38;7.72;;;;;;;;;;5107195;28;20019;-45
2023/09/22 14:20:13;;;;;;;14.80;7.15;;;;;;;;;;5107307;28;20065;-40
2023/09/22 14:22:42;;;;;;;11.70;6.63;;;;;;;;;;5107291;28;20216;-43
2023/09/22 14:25:11;;;;;;;13.15;7.20;;;;;;;;;;5107098;28;20246;-39
2023/09/22 14:27:38;;;;;;;16.20;7.10;;;;;;;;;;5107577;28;20035;-38
2023/09/22 14:30:07;;;;;;;17.50;7.30;;;;;;;;;;5106931;28;20032;-38
2023/09/22 14:32:37;;;;;;;22.65;8.45;;;;;;;;;;5107267;28;20032;-38
2023/09/22 14:35:05;;;;;;;17.48;7.88;;;;;;;;;;5106923;28;20034;-45
2023/09/22 14:37:33;;;;;;;20.13;7.55;;;;;;;;;;5107054;28;20064;-39